sensor_id;sensor_type;location;lat;lon;timestamp;P1;durP1;ratioP1;P2;durP2;ratioP2
23228;SDS011;11783;50.350;6.576;2023-07-29T00:00:19;2.83;;;1.20;;
23228;SDS011;11783;50.350;6.576;2023-07-29T00:02:44;3.05;;;1.38;;
23228;SDS011;11783;50.350;6.576;2023-07-29T00:05:10;4.03;;;1.30;;
23228;SDS011;11783;50.350;6.576;2023-07-29T00:07:36;2.83;;;1.08;;
23228;SDS011;11783;50.350;6.576;2023-07-29T00:10:02;2.72;;;1.13;;
23228;SDS011;11783;50.350;6.576;2023-07-29T00:12:28;3.72;;;1.10;;
23228;SDS011;11783;50.350;6.576;2023-07-29T00:14:54;2.47;;;0.90;;
23228;SDS011;11783;50.350;6.576;2023-07-29T00:17:19;2.72;;;0.90;;
23228;SDS011;11783;50.350;6.576;2023-07-29T00:19:45;1.90;;;1.13;;
23228;SDS011;11783;50.350;6.576;2023-07-29T00:22:11;4.00;;;1.17;;
23228;SDS011;11783;50.350;6.576;2023-07-29T00:24:36;2.78;;;1.08;;
23228;SDS011;11783;50.350;6.576;2023-07-29T00:27:02;4.05;;;1.40;;
23228;SDS011;11783;50.350;6.576;2023-07-29T00:29:27;4.15;;;1.10;;
23228;SDS011;11783;50.350;6.576;2023-07-29T00:31:53;2.42;;;0.98;;
23228;SDS011;11783;50.350;6.576;2023-07-29T00:34:18;1.65;;;0.90;;
23228;SDS011;11783;50.350;6.576;2023-07-29T00:36:44;2.05;;;1.08;;
23228;SDS011;11783;50.350;6.576;2023-07-29T00:39:10;4.25;;;1.20;;
23228;SDS011;11783;50.350;6.576;2023-07-29T00:41:36;2.90;;;1.38;;
23228;SDS011;11783;50.350;6.576;2023-07-29T00:44:01;3.42;;;1.23;;
23228;SDS011;11783;50.350;6.576;2023-07-29T00:46:27;3.30;;;1.30;;
23228;SDS011;11783;50.350;6.576;2023-07-29T00:48:54;5.63;;;1.00;;
23228;SDS011;11783;50.350;6.576;2023-07-29T00:51:20;2.78;;;1.27;;
23228;SDS011;11783;50.350;6.576;2023-07-29T00:53:46;3.10;;;1.58;;
23228;SDS011;11783;50.350;6.576;2023-07-29T00:56:11;4.65;;;1.40;;
23228;SDS011;11783;50.350;6.576;2023-07-29T00:58:37;3.58;;;1.83;;
23228;SDS011;11783;50.350;6.576;2023-07-29T01:01:02;2.60;;;1.67;;
23228;SDS011;11783;50.350;6.576;2023-07-29T01:03:28;2.63;;;1.52;;
23228;SDS011;11783;50.350;6.576;2023-07-29T01:12:01;4.68;;;1.98;;
23228;SDS011;11783;50.350;6.576;2023-07-29T01:14:47;6.88;;;1.80;;
23228;SDS011;11783;50.350;6.576;2023-07-29T01:17:15;2.27;;;1.47;;
23228;SDS011;11783;50.350;6.576;2023-07-29T01:20:06;3.78;;;1.85;;
23228;SDS011;11783;50.350;6.576;2023-07-29T01:22:34;3.60;;;1.77;;
23228;SDS011;11783;50.350;6.576;2023-07-29T01:25:00;5.45;;;1.98;;
23228;SDS011;11783;50.350;6.576;2023-07-29T01:27:25;3.55;;;1.40;;
23228;SDS011;11783;50.350;6.576;2023-07-29T01:29:52;3.80;;;1.50;;
23228;SDS011;11783;50.350;6.576;2023-07-29T01:37:53;4.20;;;1.60;;
23228;SDS011;11783;50.350;6.576;2023-07-29T01:40:26;4.22;;;1.52;;
23228;SDS011;11783;50.350;6.576;2023-07-29T01:45:18;3.20;;;1.60;;
23228;SDS011;11783;50.350;6.576;2023-07-29T01:47:44;3.90;;;1.70;;
23228;SDS011;11783;50.350;6.576;2023-07-29T01:50:09;3.00;;;1.80;;
23228;SDS011;11783;50.350;6.576;2023-07-29T01:52:35;3.42;;;1.52;;
23228;SDS011;11783;50.350;6.576;2023-07-29T01:55:01;3.63;;;1.65;;
23228;SDS011;11783;50.350;6.576;2023-07-29T01:57:26;3.10;;;1.73;;
23228;SDS011;11783;50.350;6.576;2023-07-29T01:59:52;3.97;;;1.90;;
23228;SDS011;11783;50.350;6.576;2023-07-29T02:02:17;4.38;;;1.50;;
23228;SDS011;11783;50.350;6.576;2023-07-29T02:04:43;3.90;;;1.50;;
23228;SDS011;11783;50.350;6.576;2023-07-29T02:07:08;3.08;;;1.50;;
23228;SDS011;11783;50.350;6.576;2023-07-29T02:09:33;4.47;;;1.80;;
23228;SDS011;11783;50.350;6.576;2023-07-29T02:11:59;2.30;;;1.40;;
23228;SDS011;11783;50.350;6.576;2023-07-29T02:14:24;2.78;;;1.50;;
23228;SDS011;11783;50.350;6.576;2023-07-29T02:16:49;4.38;;;1.83;;
23228;SDS011;11783;50.350;6.576;2023-07-29T02:19:15;3.78;;;1.60;;
23228;SDS011;11783;50.350;6.576;2023-07-29T02:21:40;5.50;;;2.00;;
23228;SDS011;11783;50.350;6.576;2023-07-29T02:24:06;4.65;;;1.80;;
23228;SDS011;11783;50.350;6.576;2023-07-29T02:26:31;5.75;;;2.08;;
23228;SDS011;11783;50.350;6.576;2023-07-29T02:28:56;5.82;;;2.50;;
23228;SDS011;11783;50.350;6.576;2023-07-29T02:31:24;4.60;;;2.00;;
23228;SDS011;11783;50.350;6.576;2023-07-29T02:33:50;5.28;;;2.15;;
23228;SDS011;11783;50.350;6.576;2023-07-29T02:36:16;4.60;;;2.40;;
23228;SDS011;11783;50.350;6.576;2023-07-29T02:38:42;5.55;;;2.20;;
23228;SDS011;11783;50.350;6.576;2023-07-29T02:41:08;5.78;;;2.15;;
23228;SDS011;11783;50.350;6.576;2023-07-29T02:43:35;3.97;;;2.28;;
23228;SDS011;11783;50.350;6.576;2023-07-29T02:46:01;2.92;;;1.80;;
23228;SDS011;11783;50.350;6.576;2023-07-29T02:48:29;3.05;;;1.90;;
23228;SDS011;11783;50.350;6.576;2023-07-29T02:50:55;4.57;;;1.88;;
23228;SDS011;11783;50.350;6.576;2023-07-29T02:53:21;3.13;;;1.50;;
23228;SDS011;11783;50.350;6.576;2023-07-29T02:55:47;3.35;;;1.52;;
23228;SDS011;11783;50.350;6.576;2023-07-29T02:58:13;3.33;;;1.52;;
23228;SDS011;11783;50.350;6.576;2023-07-29T03:00:38;2.13;;;1.13;;
23228;SDS011;11783;50.350;6.576;2023-07-29T03:03:06;2.80;;;1.20;;
23228;SDS011;11783;50.350;6.576;2023-07-29T03:05:32;1.75;;;0.95;;
23228;SDS011;11783;50.350;6.576;2023-07-29T03:07:57;2.88;;;1.00;;
23228;SDS011;11783;50.350;6.576;2023-07-29T03:10:23;4.10;;;1.00;;
23228;SDS011;11783;50.350;6.576;2023-07-29T03:12:48;2.05;;;0.90;;
23228;SDS011;11783;50.350;6.576;2023-07-29T03:15:13;2.60;;;0.98;;
23228;SDS011;11783;50.350;6.576;2023-07-29T03:17:39;2.80;;;0.80;;
23228;SDS011;11783;50.350;6.576;2023-07-29T03:20:04;2.78;;;0.80;;
23228;SDS011;11783;50.350;6.576;2023-07-29T03:22:30;3.15;;;0.70;;
23228;SDS011;11783;50.350;6.576;2023-07-29T03:24:56;2.28;;;0.80;;
23228;SDS011;11783;50.350;6.576;2023-07-29T03:27:21;1.98;;;0.80;;
23228;SDS011;11783;50.350;6.576;2023-07-29T03:29:46;2.80;;;0.70;;
23228;SDS011;11783;50.350;6.576;2023-07-29T03:32:12;2.17;;;0.70;;
23228;SDS011;11783;50.350;6.576;2023-07-29T03:34:37;1.65;;;0.75;;
23228;SDS011;11783;50.350;6.576;2023-07-29T03:37:05;1.90;;;0.70;;
23228;SDS011;11783;50.350;6.576;2023-07-29T03:39:30;1.05;;;0.60;;
23228;SDS011;11783;50.350;6.576;2023-07-29T03:41:56;1.45;;;0.70;;
23228;SDS011;11783;50.350;6.576;2023-07-29T03:44:21;3.03;;;0.63;;
23228;SDS011;11783;50.350;6.576;2023-07-29T03:46:46;3.65;;;0.70;;
23228;SDS011;11783;50.350;6.576;2023-07-29T03:49:12;3.90;;;0.77;;
23228;SDS011;11783;50.350;6.576;2023-07-29T03:51:37;2.10;;;0.75;;
23228;SDS011;11783;50.350;6.576;2023-07-29T03:54:02;3.75;;;0.90;;
23228;SDS011;11783;50.350;6.576;2023-07-29T03:56:28;3.45;;;0.90;;
23228;SDS011;11783;50.350;6.576;2023-07-29T03:58:53;2.35;;;0.90;;
23228;SDS011;11783;50.350;6.576;2023-07-29T04:01:19;2.17;;;0.70;;
23228;SDS011;11783;50.350;6.576;2023-07-29T04:03:44;3.15;;;0.77;;
23228;SDS011;11783;50.350;6.576;2023-07-29T04:06:11;2.38;;;0.80;;
23228;SDS011;11783;50.350;6.576;2023-07-29T04:08:37;3.88;;;0.98;;
23228;SDS011;11783;50.350;6.576;2023-07-29T04:11:02;3.85;;;0.90;;
23228;SDS011;11783;50.350;6.576;2023-07-29T04:13:28;5.15;;;0.82;;
23228;SDS011;11783;50.350;6.576;2023-07-29T04:15:53;2.28;;;0.90;;
23228;SDS011;11783;50.350;6.576;2023-07-29T04:18:18;2.35;;;0.93;;
23228;SDS011;11783;50.350;6.576;2023-07-29T04:20:44;3.58;;;0.88;;
23228;SDS011;11783;50.350;6.576;2023-07-29T04:23:09;2.67;;;0.88;;
23228;SDS011;11783;50.350;6.576;2023-07-29T04:25:35;2.22;;;1.00;;
23228;SDS011;11783;50.350;6.576;2023-07-29T04:28:00;4.30;;;0.82;;
23228;SDS011;11783;50.350;6.576;2023-07-29T04:30:28;3.00;;;0.93;;
23228;SDS011;11783;50.350;6.576;2023-07-29T04:32:53;2.33;;;0.90;;
23228;SDS011;11783;50.350;6.576;2023-07-29T04:35:18;3.00;;;0.90;;
23228;SDS011;11783;50.350;6.576;2023-07-29T04:37:44;6.47;;;1.20;;
23228;SDS011;11783;50.350;6.576;2023-07-29T04:40:09;3.15;;;1.05;;
23228;SDS011;11783;50.350;6.576;2023-07-29T04:42:36;4.75;;;1.10;;
23228;SDS011;11783;50.350;6.576;2023-07-29T04:45:01;2.83;;;0.93;;
23228;SDS011;11783;50.350;6.576;2023-07-29T04:47:27;1.90;;;1.00;;
23228;SDS011;11783;50.350;6.576;2023-07-29T04:49:53;2.05;;;1.10;;
23228;SDS011;11783;50.350;6.576;2023-07-29T04:52:18;3.85;;;1.00;;
23228;SDS011;11783;50.350;6.576;2023-07-29T04:54:44;4.43;;;1.05;;
23228;SDS011;11783;50.350;6.576;2023-07-29T04:57:10;2.17;;;1.10;;
23228;SDS011;11783;50.350;6.576;2023-07-29T04:59:35;5.07;;;1.13;;
23228;SDS011;11783;50.350;6.576;2023-07-29T05:02:00;1.90;;;1.10;;
23228;SDS011;11783;50.350;6.576;2023-07-29T05:04:25;4.93;;;1.05;;
23228;SDS011;11783;50.350;6.576;2023-07-29T05:06:51;3.28;;;1.10;;
23228;SDS011;11783;50.350;6.576;2023-07-29T05:09:17;5.78;;;1.17;;
23228;SDS011;11783;50.350;6.576;2023-07-29T05:11:43;1.83;;;0.93;;
23228;SDS011;11783;50.350;6.576;2023-07-29T05:14:15;2.72;;;1.00;;
23228;SDS011;11783;50.350;6.576;2023-07-29T05:16:42;2.40;;;1.00;;
23228;SDS011;11783;50.350;6.576;2023-07-29T05:19:08;4.38;;;1.05;;
23228;SDS011;11783;50.350;6.576;2023-07-29T05:21:35;4.63;;;1.10;;
23228;SDS011;11783;50.350;6.576;2023-07-29T05:24:01;1.88;;;0.85;;
23228;SDS011;11783;50.350;6.576;2023-07-29T05:26:27;2.55;;;0.90;;
23228;SDS011;11783;50.350;6.576;2023-07-29T05:28:52;2.28;;;1.17;;
23228;SDS011;11783;50.350;6.576;2023-07-29T05:31:17;1.63;;;0.90;;
23228;SDS011;11783;50.350;6.576;2023-07-29T05:33:43;2.25;;;0.95;;
23228;SDS011;11783;50.350;6.576;2023-07-29T05:36:08;3.63;;;1.13;;
23228;SDS011;11783;50.350;6.576;2023-07-29T05:38:33;4.78;;;1.63;;
23228;SDS011;11783;50.350;6.576;2023-07-29T05:40:59;3.53;;;1.10;;
23228;SDS011;11783;50.350;6.576;2023-07-29T05:43:25;1.83;;;0.93;;
23228;SDS011;11783;50.350;6.576;2023-07-29T05:45:51;2.13;;;1.10;;
23228;SDS011;11783;50.350;6.576;2023-07-29T05:48:16;3.60;;;1.15;;
23228;SDS011;11783;50.350;6.576;2023-07-29T05:50:42;3.50;;;1.25;;
23228;SDS011;11783;50.350;6.576;2023-07-29T05:53:07;5.63;;;1.02;;
23228;SDS011;11783;50.350;6.576;2023-07-29T05:55:32;1.92;;;1.00;;
23228;SDS011;11783;50.350;6.576;2023-07-29T05:57:58;2.90;;;1.30;;
23228;SDS011;11783;50.350;6.576;2023-07-29T06:00:23;2.92;;;1.15;;
23228;SDS011;11783;50.350;6.576;2023-07-29T06:02:48;3.13;;;1.00;;
23228;SDS011;11783;50.350;6.576;2023-07-29T06:05:14;3.30;;;1.10;;
23228;SDS011;11783;50.350;6.576;2023-07-29T06:07:39;2.20;;;1.00;;
23228;SDS011;11783;50.350;6.576;2023-07-29T06:10:09;2.08;;;1.00;;
23228;SDS011;11783;50.350;6.576;2023-07-29T06:12:36;3.88;;;1.20;;
23228;SDS011;11783;50.350;6.576;2023-07-29T06:15:02;2.17;;;1.10;;
23228;SDS011;11783;50.350;6.576;2023-07-29T06:17:28;2.45;;;1.10;;
23228;SDS011;11783;50.350;6.576;2023-07-29T06:19:53;2.80;;;1.00;;
23228;SDS011;11783;50.350;6.576;2023-07-29T06:22:18;2.58;;;1.20;;
23228;SDS011;11783;50.350;6.576;2023-07-29T06:24:44;3.08;;;1.10;;
23228;SDS011;11783;50.350;6.576;2023-07-29T06:27:09;2.30;;;1.17;;
23228;SDS011;11783;50.350;6.576;2023-07-29T06:29:34;2.90;;;1.42;;
23228;SDS011;11783;50.350;6.576;2023-07-29T06:32:00;2.40;;;1.10;;
23228;SDS011;11783;50.350;6.576;2023-07-29T06:34:25;2.80;;;1.10;;
23228;SDS011;11783;50.350;6.576;2023-07-29T06:36:51;4.93;;;1.20;;
23228;SDS011;11783;50.350;6.576;2023-07-29T06:39:16;3.33;;;1.17;;
23228;SDS011;11783;50.350;6.576;2023-07-29T06:41:41;2.75;;;1.10;;
23228;SDS011;11783;50.350;6.576;2023-07-29T06:44:07;5.05;;;1.00;;
23228;SDS011;11783;50.350;6.576;2023-07-29T06:46:32;4.40;;;1.20;;
23228;SDS011;11783;50.350;6.576;2023-07-29T06:48:57;3.33;;;1.25;;
23228;SDS011;11783;50.350;6.576;2023-07-29T06:51:22;3.25;;;1.33;;
23228;SDS011;11783;50.350;6.576;2023-07-29T06:53:48;3.33;;;1.25;;
23228;SDS011;11783;50.350;6.576;2023-07-29T06:56:13;3.75;;;1.10;;
23228;SDS011;11783;50.350;6.576;2023-07-29T06:58:38;3.08;;;0.98;;
23228;SDS011;11783;50.350;6.576;2023-07-29T07:01:04;2.83;;;1.10;;
23228;SDS011;11783;50.350;6.576;2023-07-29T07:03:29;4.65;;;1.20;;
23228;SDS011;11783;50.350;6.576;2023-07-29T07:05:54;4.22;;;1.30;;
23228;SDS011;11783;50.350;6.576;2023-07-29T07:08:20;2.42;;;1.08;;
23228;SDS011;11783;50.350;6.576;2023-07-29T07:10:46;5.38;;;1.27;;
23228;SDS011;11783;50.350;6.576;2023-07-29T07:13:12;2.75;;;1.02;;
23228;SDS011;11783;50.350;6.576;2023-07-29T07:15:37;2.03;;;1.00;;
23228;SDS011;11783;50.350;6.576;2023-07-29T07:18:03;4.00;;;1.10;;
23228;SDS011;11783;50.350;6.576;2023-07-29T07:20:28;2.25;;;1.17;;
23228;SDS011;11783;50.350;6.576;2023-07-29T07:22:54;4.07;;;1.15;;
23228;SDS011;11783;50.350;6.576;2023-07-29T07:25:19;2.72;;;1.20;;
23228;SDS011;11783;50.350;6.576;2023-07-29T07:27:44;2.50;;;1.30;;
23228;SDS011;11783;50.350;6.576;2023-07-29T07:30:10;2.60;;;1.25;;
23228;SDS011;11783;50.350;6.576;2023-07-29T07:32:35;3.75;;;1.20;;
23228;SDS011;11783;50.350;6.576;2023-07-29T07:35:01;3.40;;;1.30;;
23228;SDS011;11783;50.350;6.576;2023-07-29T07:37:26;2.25;;;1.08;;
23228;SDS011;11783;50.350;6.576;2023-07-29T07:39:52;2.70;;;1.25;;
23228;SDS011;11783;50.350;6.576;2023-07-29T07:42:17;2.50;;;1.08;;
23228;SDS011;11783;50.350;6.576;2023-07-29T07:44:43;3.20;;;1.38;;
23228;SDS011;11783;50.350;6.576;2023-07-29T07:47:08;2.83;;;1.30;;
23228;SDS011;11783;50.350;6.576;2023-07-29T07:49:33;3.90;;;1.23;;
23228;SDS011;11783;50.350;6.576;2023-07-29T07:51:59;3.55;;;1.50;;
23228;SDS011;11783;50.350;6.576;2023-07-29T07:54:24;4.18;;;1.40;;
23228;SDS011;11783;50.350;6.576;2023-07-29T07:56:49;3.22;;;1.58;;
23228;SDS011;11783;50.350;6.576;2023-07-29T07:59:15;3.13;;;1.40;;
23228;SDS011;11783;50.350;6.576;2023-07-29T08:01:40;3.22;;;1.10;;
23228;SDS011;11783;50.350;6.576;2023-07-29T08:04:05;4.28;;;1.40;;
23228;SDS011;11783;50.350;6.576;2023-07-29T08:06:31;2.70;;;1.40;;
23228;SDS011;11783;50.350;6.576;2023-07-29T08:08:57;4.22;;;1.30;;
23228;SDS011;11783;50.350;6.576;2023-07-29T08:11:23;3.60;;;1.25;;
23228;SDS011;11783;50.350;6.576;2023-07-29T08:13:49;2.20;;;1.20;;
23228;SDS011;11783;50.350;6.576;2023-07-29T08:16:14;2.97;;;1.35;;
23228;SDS011;11783;50.350;6.576;2023-07-29T08:18:40;4.55;;;1.48;;
23228;SDS011;11783;50.350;6.576;2023-07-29T08:21:05;3.85;;;1.27;;
23228;SDS011;11783;50.350;6.576;2023-07-29T08:23:31;3.92;;;1.30;;
23228;SDS011;11783;50.350;6.576;2023-07-29T08:25:58;2.47;;;1.20;;
23228;SDS011;11783;50.350;6.576;2023-07-29T08:28:40;4.22;;;1.77;;
23228;SDS011;11783;50.350;6.576;2023-07-29T08:31:05;4.38;;;1.42;;
23228;SDS011;11783;50.350;6.576;2023-07-29T08:33:31;2.88;;;1.35;;
23228;SDS011;11783;50.350;6.576;2023-07-29T08:35:58;3.67;;;1.50;;
23228;SDS011;11783;50.350;6.576;2023-07-29T08:38:24;2.38;;;1.33;;
23228;SDS011;11783;50.350;6.576;2023-07-29T08:40:50;4.18;;;1.42;;
23228;SDS011;11783;50.350;6.576;2023-07-29T08:43:22;4.05;;;1.30;;
23228;SDS011;11783;50.350;6.576;2023-07-29T08:45:53;3.20;;;1.45;;
23228;SDS011;11783;50.350;6.576;2023-07-29T08:48:19;2.45;;;1.27;;
23228;SDS011;11783;50.350;6.576;2023-07-29T08:50:54;6.93;;;1.58;;
23228;SDS011;11783;50.350;6.576;2023-07-29T08:53:20;3.58;;;1.40;;
23228;SDS011;11783;50.350;6.576;2023-07-29T08:55:46;2.53;;;1.50;;
23228;SDS011;11783;50.350;6.576;2023-07-29T08:58:12;4.70;;;1.60;;
23228;SDS011;11783;50.350;6.576;2023-07-29T09:00:37;2.63;;;1.45;;
23228;SDS011;11783;50.350;6.576;2023-07-29T09:03:04;2.88;;;1.50;;
23228;SDS011;11783;50.350;6.576;2023-07-29T09:05:32;4.57;;;1.50;;
23228;SDS011;11783;50.350;6.576;2023-07-29T09:07:58;3.28;;;1.60;;
23228;SDS011;11783;50.350;6.576;2023-07-29T09:10:25;5.13;;;1.48;;
23228;SDS011;11783;50.350;6.576;2023-07-29T09:12:51;2.75;;;1.50;;
23228;SDS011;11783;50.350;6.576;2023-07-29T09:15:29;2.70;;;1.40;;
23228;SDS011;11783;50.350;6.576;2023-07-29T09:17:57;4.13;;;1.42;;
23228;SDS011;11783;50.350;6.576;2023-07-29T09:20:26;4.43;;;1.98;;
23228;SDS011;11783;50.350;6.576;2023-07-29T09:22:57;4.30;;;1.50;;
23228;SDS011;11783;50.350;6.576;2023-07-29T09:25:25;4.05;;;1.40;;
23228;SDS011;11783;50.350;6.576;2023-07-29T09:27:52;2.97;;;1.35;;
23228;SDS011;11783;50.350;6.576;2023-07-29T09:30:23;2.50;;;1.30;;
23228;SDS011;11783;50.350;6.576;2023-07-29T09:32:52;3.00;;;1.35;;
23228;SDS011;11783;50.350;6.576;2023-07-29T09:37:45;2.77;;;1.50;;
23228;SDS011;11783;50.350;6.576;2023-07-29T09:40:13;3.50;;;1.40;;
23228;SDS011;11783;50.350;6.576;2023-07-29T09:42:40;2.65;;;1.40;;
23228;SDS011;11783;50.350;6.576;2023-07-29T09:45:18;3.22;;;1.52;;
23228;SDS011;11783;50.350;6.576;2023-07-29T09:47:53;3.78;;;1.40;;
23228;SDS011;11783;50.350;6.576;2023-07-29T09:50:22;2.45;;;1.30;;
23228;SDS011;11783;50.350;6.576;2023-07-29T09:52:50;4.03;;;1.40;;
23228;SDS011;11783;50.350;6.576;2023-07-29T09:55:17;2.67;;;1.40;;
23228;SDS011;11783;50.350;6.576;2023-07-29T09:57:44;2.38;;;1.40;;
23228;SDS011;11783;50.350;6.576;2023-07-29T10:00:13;3.75;;;1.50;;
23228;SDS011;11783;50.350;6.576;2023-07-29T10:02:39;3.35;;;1.40;;
23228;SDS011;11783;50.350;6.576;2023-07-29T10:05:07;3.10;;;1.58;;
23228;SDS011;11783;50.350;6.576;2023-07-29T10:07:37;4.07;;;1.33;;
23228;SDS011;11783;50.350;6.576;2023-07-29T10:10:04;3.63;;;1.50;;
23228;SDS011;11783;50.350;6.576;2023-07-29T10:12:30;2.50;;;1.40;;
23228;SDS011;11783;50.350;6.576;2023-07-29T10:14:58;3.10;;;1.63;;
23228;SDS011;11783;50.350;6.576;2023-07-29T10:17:26;3.85;;;1.40;;
23228;SDS011;11783;50.350;6.576;2023-07-29T10:19:51;2.40;;;1.30;;
23228;SDS011;11783;50.350;6.576;2023-07-29T10:22:18;3.40;;;1.23;;
23228;SDS011;11783;50.350;6.576;2023-07-29T10:24:46;3.58;;;1.40;;
23228;SDS011;11783;50.350;6.576;2023-07-29T10:27:14;3.10;;;1.60;;
23228;SDS011;11783;50.350;6.576;2023-07-29T10:29:44;2.73;;;1.40;;
23228;SDS011;11783;50.350;6.576;2023-07-29T10:32:11;3.78;;;1.40;;
23228;SDS011;11783;50.350;6.576;2023-07-29T10:34:36;4.60;;;1.50;;
23228;SDS011;11783;50.350;6.576;2023-07-29T10:37:04;3.75;;;1.52;;
23228;SDS011;11783;50.350;6.576;2023-07-29T10:39:37;3.40;;;1.48;;
23228;SDS011;11783;50.350;6.576;2023-07-29T10:42:05;3.28;;;1.40;;
23228;SDS011;11783;50.350;6.576;2023-07-29T10:47:15;2.78;;;1.55;;
23228;SDS011;11783;50.350;6.576;2023-07-29T10:49:47;3.67;;;1.40;;
23228;SDS011;11783;50.350;6.576;2023-07-29T10:52:16;4.18;;;1.25;;
23228;SDS011;11783;50.350;6.576;2023-07-29T10:54:52;3.20;;;1.38;;
23228;SDS011;11783;50.350;6.576;2023-07-29T10:57:30;3.53;;;1.40;;
23228;SDS011;11783;50.350;6.576;2023-07-29T10:59:59;3.83;;;1.70;;
23228;SDS011;11783;50.350;6.576;2023-07-29T11:02:29;4.00;;;1.70;;
23228;SDS011;11783;50.350;6.576;2023-07-29T11:04:56;3.33;;;1.33;;
23228;SDS011;11783;50.350;6.576;2023-07-29T11:07:27;2.85;;;1.40;;
23228;SDS011;11783;50.350;6.576;2023-07-29T11:15:33;3.42;;;1.45;;
23228;SDS011;11783;50.350;6.576;2023-07-29T11:17:59;2.75;;;1.33;;
23228;SDS011;11783;50.350;6.576;2023-07-29T11:20:26;4.03;;;1.60;;
23228;SDS011;11783;50.350;6.576;2023-07-29T11:22:53;3.60;;;1.50;;
23228;SDS011;11783;50.350;6.576;2023-07-29T11:25:20;3.00;;;1.50;;
23228;SDS011;11783;50.350;6.576;2023-07-29T11:27:47;2.92;;;1.50;;
23228;SDS011;11783;50.350;6.576;2023-07-29T11:30:13;3.13;;;1.60;;
23228;SDS011;11783;50.350;6.576;2023-07-29T11:32:41;3.00;;;1.50;;
23228;SDS011;11783;50.350;6.576;2023-07-29T11:35:08;3.42;;;1.58;;
23228;SDS011;11783;50.350;6.576;2023-07-29T11:37:39;2.35;;;1.30;;
23228;SDS011;11783;50.350;6.576;2023-07-29T11:40:06;3.72;;;1.40;;
23228;SDS011;11783;50.350;6.576;2023-07-29T11:42:33;3.38;;;1.70;;
23228;SDS011;11783;50.350;6.576;2023-07-29T11:44:59;3.90;;;1.48;;
23228;SDS011;11783;50.350;6.576;2023-07-29T11:47:25;3.30;;;1.67;;
23228;SDS011;11783;50.350;6.576;2023-07-29T11:49:51;4.15;;;1.60;;
23228;SDS011;11783;50.350;6.576;2023-07-29T11:52:16;3.72;;;1.63;;
23228;SDS011;11783;50.350;6.576;2023-07-29T11:54:44;2.90;;;1.50;;
23228;SDS011;11783;50.350;6.576;2023-07-29T11:57:11;3.33;;;1.27;;
23228;SDS011;11783;50.350;6.576;2023-07-29T11:59:38;2.88;;;1.40;;
23228;SDS011;11783;50.350;6.576;2023-07-29T12:02:05;3.13;;;1.50;;
23228;SDS011;11783;50.350;6.576;2023-07-29T12:04:34;2.85;;;1.48;;
23228;SDS011;11783;50.350;6.576;2023-07-29T12:07:01;3.47;;;1.27;;
23228;SDS011;11783;50.350;6.576;2023-07-29T12:09:27;3.60;;;1.40;;
23228;SDS011;11783;50.350;6.576;2023-07-29T12:11:53;4.47;;;1.63;;
23228;SDS011;11783;50.350;6.576;2023-07-29T12:14:21;3.25;;;1.58;;
23228;SDS011;11783;50.350;6.576;2023-07-29T12:16:48;4.18;;;1.50;;
23228;SDS011;11783;50.350;6.576;2023-07-29T12:19:14;3.08;;;1.50;;
23228;SDS011;11783;50.350;6.576;2023-07-29T12:21:43;3.35;;;1.70;;
23228;SDS011;11783;50.350;6.576;2023-07-29T12:24:09;3.72;;;1.48;;
23228;SDS011;11783;50.350;6.576;2023-07-29T12:26:37;3.40;;;1.48;;
23228;SDS011;11783;50.350;6.576;2023-07-29T12:29:15;2.67;;;1.55;;
23228;SDS011;11783;50.350;6.576;2023-07-29T12:31:44;3.08;;;1.60;;
23228;SDS011;11783;50.350;6.576;2023-07-29T12:34:16;3.03;;;1.70;;
23228;SDS011;11783;50.350;6.576;2023-07-29T12:36:43;3.15;;;1.70;;
23228;SDS011;11783;50.350;6.576;2023-07-29T12:39:23;2.63;;;1.52;;
23228;SDS011;11783;50.350;6.576;2023-07-29T12:41:56;2.60;;;1.52;;
23228;SDS011;11783;50.350;6.576;2023-07-29T12:44:31;3.93;;;1.67;;
23228;SDS011;11783;50.350;6.576;2023-07-29T12:46:58;4.15;;;1.90;;
23228;SDS011;11783;50.350;6.576;2023-07-29T12:49:24;3.00;;;1.60;;
23228;SDS011;11783;50.350;6.576;2023-07-29T12:51:50;4.80;;;1.60;;
23228;SDS011;11783;50.350;6.576;2023-07-29T12:54:15;3.70;;;1.70;;
23228;SDS011;11783;50.350;6.576;2023-07-29T12:56:40;4.22;;;1.80;;
23228;SDS011;11783;50.350;6.576;2023-07-29T12:59:05;3.30;;;1.48;;
23228;SDS011;11783;50.350;6.576;2023-07-29T13:01:31;2.97;;;1.48;;
23228;SDS011;11783;50.350;6.576;2023-07-29T13:03:56;3.35;;;1.60;;
23228;SDS011;11783;50.350;6.576;2023-07-29T13:06:22;6.28;;;1.60;;
23228;SDS011;11783;50.350;6.576;2023-07-29T13:08:47;3.10;;;1.50;;
23228;SDS011;11783;50.350;6.576;2023-07-29T13:11:14;4.35;;;1.60;;
23228;SDS011;11783;50.350;6.576;2023-07-29T13:13:42;3.28;;;1.55;;
23228;SDS011;11783;50.350;6.576;2023-07-29T13:16:08;3.53;;;1.40;;
23228;SDS011;11783;50.350;6.576;2023-07-29T13:18:34;3.03;;;1.50;;
23228;SDS011;11783;50.350;6.576;2023-07-29T13:20:59;2.55;;;1.40;;
23228;SDS011;11783;50.350;6.576;2023-07-29T13:23:25;2.72;;;1.40;;
23228;SDS011;11783;50.350;6.576;2023-07-29T13:25:50;4.75;;;1.55;;
23228;SDS011;11783;50.350;6.576;2023-07-29T13:28:16;4.30;;;1.80;;
23228;SDS011;11783;50.350;6.576;2023-07-29T13:30:42;2.75;;;1.50;;
23228;SDS011;11783;50.350;6.576;2023-07-29T13:33:07;2.65;;;1.35;;
23228;SDS011;11783;50.350;6.576;2023-07-29T13:35:33;2.85;;;1.50;;
23228;SDS011;11783;50.350;6.576;2023-07-29T13:37:58;3.25;;;1.48;;
23228;SDS011;11783;50.350;6.576;2023-07-29T13:40:24;3.03;;;1.48;;
23228;SDS011;11783;50.350;6.576;2023-07-29T13:42:50;5.75;;;1.55;;
23228;SDS011;11783;50.350;6.576;2023-07-29T13:45:16;3.38;;;1.50;;
23228;SDS011;11783;50.350;6.576;2023-07-29T13:47:42;3.05;;;1.50;;
23228;SDS011;11783;50.350;6.576;2023-07-29T13:50:07;3.67;;;1.50;;
23228;SDS011;11783;50.350;6.576;2023-07-29T13:52:33;3.58;;;1.45;;
23228;SDS011;11783;50.350;6.576;2023-07-29T13:54:58;2.75;;;1.40;;
23228;SDS011;11783;50.350;6.576;2023-07-29T13:57:24;2.70;;;1.52;;
23228;SDS011;11783;50.350;6.576;2023-07-29T13:59:49;2.60;;;1.55;;
23228;SDS011;11783;50.350;6.576;2023-07-29T14:02:14;4.30;;;1.60;;
23228;SDS011;11783;50.350;6.576;2023-07-29T14:04:39;2.92;;;1.52;;
23228;SDS011;11783;50.350;6.576;2023-07-29T14:07:05;3.35;;;1.42;;
23228;SDS011;11783;50.350;6.576;2023-07-29T14:09:30;4.63;;;1.50;;
23228;SDS011;11783;50.350;6.576;2023-07-29T14:11:56;2.70;;;1.45;;
23228;SDS011;11783;50.350;6.576;2023-07-29T14:14:21;3.72;;;1.38;;
23228;SDS011;11783;50.350;6.576;2023-07-29T14:16:46;3.10;;;1.42;;
23228;SDS011;11783;50.350;6.576;2023-07-29T14:19:12;2.20;;;1.13;;
23228;SDS011;11783;50.350;6.576;2023-07-29T14:21:37;3.45;;;1.45;;
23228;SDS011;11783;50.350;6.576;2023-07-29T14:24:03;3.13;;;1.17;;
23228;SDS011;11783;50.350;6.576;2023-07-29T14:26:29;3.47;;;1.50;;
23228;SDS011;11783;50.350;6.576;2023-07-29T14:28:54;3.13;;;1.55;;
23228;SDS011;11783;50.350;6.576;2023-07-29T14:31:20;2.03;;;1.02;;
23228;SDS011;11783;50.350;6.576;2023-07-29T14:33:45;2.38;;;1.40;;
23228;SDS011;11783;50.350;6.576;2023-07-29T14:36:10;3.33;;;1.33;;
23228;SDS011;11783;50.350;6.576;2023-07-29T14:38:36;2.80;;;1.48;;
23228;SDS011;11783;50.350;6.576;2023-07-29T14:41:02;2.67;;;1.30;;
23228;SDS011;11783;50.350;6.576;2023-07-29T14:43:28;4.38;;;1.38;;
23228;SDS011;11783;50.350;6.576;2023-07-29T14:45:54;2.38;;;1.20;;
23228;SDS011;11783;50.350;6.576;2023-07-29T14:48:19;3.17;;;1.52;;
23228;SDS011;11783;50.350;6.576;2023-07-29T14:50:45;2.40;;;1.20;;
23228;SDS011;11783;50.350;6.576;2023-07-29T14:53:10;2.78;;;1.30;;
23228;SDS011;11783;50.350;6.576;2023-07-29T14:55:39;4.40;;;1.48;;
23228;SDS011;11783;50.350;6.576;2023-07-29T14:58:04;2.67;;;1.50;;
23228;SDS011;11783;50.350;6.576;2023-07-29T15:00:30;3.30;;;1.10;;
23228;SDS011;11783;50.350;6.576;2023-07-29T15:02:55;4.03;;;1.70;;
23228;SDS011;11783;50.350;6.576;2023-07-29T15:05:21;2.63;;;1.27;;
23228;SDS011;11783;50.350;6.576;2023-07-29T15:07:46;2.47;;;1.30;;